createdAt,value
2019-03-12T00:02:09.691Z,44.30
2019-03-12T00:04:37.173Z,42.50
2019-03-12T00:07:04.761Z,48.07
2019-03-12T00:09:32.266Z,40.17
2019-03-12T00:11:59.789Z,38.40
2019-03-12T00:14:27.325Z,39.20
2019-03-12T00:16:54.824Z,34.87
2019-03-12T00:19:22.323Z,37.43
2019-03-12T00:21:49.857Z,44.23
2019-03-12T00:24:17.431Z,40.40
2019-03-12T00:26:44.928Z,36.87
2019-03-12T00:29:12.435Z,37.90
2019-03-12T00:31:39.982Z,36.80
2019-03-12T00:34:07.472Z,36.93
2019-03-12T00:36:34.975Z,38.03
2019-03-12T00:39:03.694Z,44.93
2019-03-12T00:41:31.253Z,44.10
2019-03-12T00:43:58.827Z,46.13
2019-03-12T00:46:27.229Z,41.00
2019-03-12T00:48:54.857Z,45.53
2019-03-12T00:51:22.367Z,48.07
2019-03-12T00:53:49.926Z,42.07
2019-03-12T00:56:17.461Z,47.47
2019-03-12T00:58:44.980Z,42.23
2019-03-12T01:01:12.465Z,42.53
2019-03-12T01:03:40.007Z,41.87
2019-03-12T01:06:07.524Z,40.63
2019-03-12T01:08:35.013Z,38.33
2019-03-12T01:11:02.548Z,39.00
2019-03-12T01:13:30.114Z,37.77
2019-03-12T01:15:57.657Z,42.87
2019-03-12T01:18:25.161Z,43.20
2019-03-12T01:20:52.670Z,47.67
2019-03-12T01:23:20.204Z,42.17
2019-03-12T01:25:47.729Z,38.20
2019-03-12T01:28:15.217Z,36.13
2019-03-12T01:30:42.767Z,35.83
2019-03-12T01:33:10.290Z,35.30
2019-03-12T01:35:37.808Z,36.00
2019-03-12T01:38:05.373Z,39.33
2019-03-12T01:40:32.885Z,36.00
2019-03-12T01:43:00.385Z,31.70
2019-03-12T01:45:27.924Z,34.00
2019-03-12T01:47:55.429Z,33.60
2019-03-12T01:50:22.931Z,37.87
2019-03-12T01:52:50.478Z,31.53
2019-03-12T01:55:18.063Z,34.73
2019-03-12T01:57:45.565Z,37.87
2019-03-12T02:00:14.313Z,31.53
2019-03-12T02:02:41.801Z,25.83
2019-03-12T02:05:09.439Z,36.30
2019-03-12T02:07:36.929Z,30.93
2019-03-12T02:10:04.913Z,32.77
2019-03-12T02:12:32.468Z,34.57
2019-03-12T02:14:59.965Z,34.67
2019-03-12T02:17:27.483Z,40.13
2019-03-12T02:19:55.016Z,35.07
2019-03-12T02:22:22.525Z,36.80
2019-03-12T02:24:52.880Z,26.83
2019-03-12T02:27:19.377Z,26.33
2019-03-12T02:29:46.895Z,27.53
2019-03-12T02:32:14.394Z,30.37
2019-03-12T02:34:41.935Z,27.63
2019-03-12T02:37:09.438Z,26.40
2019-03-12T02:39:36.939Z,29.63
2019-03-12T02:42:04.464Z,29.83
2019-03-12T02:44:31.968Z,34.63
2019-03-12T02:46:59.458Z,38.23
2019-03-12T02:49:27.005Z,33.60
2019-03-12T02:51:54.508Z,33.20
2019-03-12T02:54:22.018Z,36.53
2019-03-12T02:56:49.545Z,34.40
2019-03-12T02:59:17.410Z,37.37
2019-03-12T03:01:44.951Z,36.33
2019-03-12T03:04:12.437Z,33.83
2019-03-12T03:07:11.742Z,30.87
2019-03-12T03:09:39.237Z,28.33
2019-03-12T03:12:06.824Z,29.63
2019-03-12T03:14:40.348Z,28.27
2019-03-12T03:17:10.154Z,35.73
2019-03-12T03:19:37.686Z,38.43
2019-03-12T03:22:05.174Z,29.47
2019-03-12T03:24:32.759Z,31.80
2019-03-12T03:27:00.256Z,27.60
2019-03-12T03:29:27.757Z,32.63
2019-03-12T03:31:55.313Z,32.40
2019-03-12T03:34:27.732Z,32.53
2019-03-12T03:36:52.119Z,31.07
2019-03-12T03:39:19.628Z,34.53
2019-03-12T03:41:47.130Z,32.87
2019-03-12T03:44:14.664Z,28.57
2019-03-12T03:46:42.182Z,28.23
2019-03-12T03:49:09.710Z,42.20
2019-03-12T03:51:37.229Z,33.37
2019-03-12T03:54:04.796Z,32.33
2019-03-12T03:56:32.346Z,34.73
2019-03-12T03:58:59.808Z,28.27
2019-03-12T04:01:27.328Z,31.20
2019-03-12T04:03:54.828Z,30.20
2019-03-12T04:06:22.361Z,32.80
2019-03-12T04:08:49.876Z,30.27
2019-03-12T04:11:17.397Z,26.97
2019-03-12T04:13:44.907Z,27.20
2019-03-12T04:16:12.737Z,29.60
2019-03-12T04:18:40.243Z,25.30
2019-03-12T04:21:07.740Z,35.23
2019-03-12T04:23:35.310Z,36.67
2019-03-12T04:26:02.810Z,37.00
2019-03-12T04:28:30.355Z,29.97
2019-03-12T04:30:57.855Z,37.07
2019-03-12T04:34:08.376Z,30.87
2019-03-12T04:36:35.882Z,31.77
2019-03-12T04:39:05.072Z,32.83
2019-03-12T04:41:32.607Z,29.47
2019-03-12T04:44:00.094Z,37.70
2019-03-12T04:46:27.652Z,29.20
2019-03-12T04:48:55.170Z,32.17
2019-03-12T04:51:22.668Z,37.03
2019-03-12T04:53:50.196Z,37.60
2019-03-12T04:56:17.680Z,32.20
2019-03-12T04:58:45.228Z,35.17
2019-03-12T05:01:12.728Z,31.33
2019-03-12T05:03:40.232Z,31.80
2019-03-12T05:06:07.788Z,32.87
2019-03-12T05:08:35.292Z,32.37
2019-03-12T05:11:02.799Z,35.40
2019-03-12T05:13:30.338Z,48.83
2019-03-12T05:15:57.885Z,38.87
2019-03-12T05:18:25.400Z,32.77
2019-03-12T05:20:52.960Z,29.30
2019-03-12T05:23:20.458Z,32.37
2019-03-12T05:25:47.961Z,26.97
2019-03-12T05:28:15.506Z,36.57
2019-03-12T05:30:43.086Z,30.70
2019-03-12T05:33:10.593Z,25.83
2019-03-12T05:35:38.126Z,33.60
2019-03-12T05:38:05.647Z,30.27
2019-03-12T05:40:33.206Z,34.17
2019-03-12T05:43:00.699Z,33.53
2019-03-12T05:45:28.191Z,36.80
2019-03-12T05:47:55.738Z,32.17
2019-03-12T05:50:23.244Z,39.17
2019-03-12T05:52:50.737Z,36.17
2019-03-12T05:55:18.288Z,35.73
2019-03-12T05:57:45.837Z,36.47
2019-03-12T06:00:13.676Z,27.53
2019-03-12T06:02:41.197Z,34.33
2019-03-12T06:05:08.744Z,31.73
2019-03-12T06:07:36.264Z,33.17
2019-03-12T06:10:04.759Z,30.23
2019-03-12T06:12:32.340Z,22.97
2019-03-12T06:14:59.840Z,26.03
2019-03-12T06:17:27.338Z,33.90
2019-03-12T06:19:54.862Z,27.97
2019-03-12T06:22:22.392Z,33.20
2019-03-12T06:24:49.910Z,26.33
2019-03-12T06:27:18.355Z,31.90
2019-03-12T06:29:45.987Z,28.13
2019-03-12T06:32:27.331Z,32.30
2019-03-12T06:35:09.947Z,36.60
2019-03-12T06:37:54.487Z,30.53
2019-03-12T06:40:41.518Z,30.07
2019-03-12T06:43:20.096Z,28.43
2019-03-12T06:46:25.436Z,28.10
2019-03-12T06:49:00.731Z,38.43
2019-03-12T06:51:53.694Z,30.57
2019-03-12T06:54:43.756Z,34.77
2019-03-12T06:57:49.260Z,32.30
2019-03-12T07:00:45.306Z,29.17
2019-03-12T07:03:35.264Z,34.73
2019-03-12T07:06:30.234Z,31.63
2019-03-12T07:09:10.914Z,34.77
2019-03-12T07:11:43.162Z,23.50
2019-03-12T07:14:30.332Z,18.60
2019-03-12T07:17:02.160Z,19.50
2019-03-12T07:19:52.220Z,17.60
2019-03-12T07:22:54.348Z,21.43
2019-03-12T07:25:46.872Z,22.97
2019-03-12T07:28:24.941Z,19.83
2019-03-12T07:31:12.155Z,28.37
2019-03-12T07:33:59.248Z,25.33
2019-03-12T07:36:37.622Z,24.67
2019-03-12T07:39:31.698Z,17.03
2019-03-12T07:42:18.728Z,20.50
2019-03-12T07:45:11.352Z,20.07
2019-03-12T07:47:56.904Z,17.30
2019-03-12T07:50:35.068Z,17.93
2019-03-12T07:53:20.988Z,27.23
2019-03-12T07:56:20.358Z,20.73
2019-03-12T07:59:08.858Z,16.83
2019-03-12T08:01:51.097Z,20.10
2019-03-12T08:04:44.132Z,10.23
2019-03-12T08:07:21.474Z,12.13
2019-03-12T08:10:26.787Z,14.67
2019-03-12T08:13:12.048Z,19.87
2019-03-12T08:15:46.346Z,23.20
2019-03-12T08:18:35.371Z,15.20
2019-03-12T08:21:33.293Z,10.87
2019-03-12T08:24:26.990Z,9.20
2019-03-12T08:27:05.667Z,12.10
2019-03-12T08:29:40.002Z,9.83
2019-03-12T08:32:34.038Z,8.70
2019-03-12T08:35:21.080Z,12.30
2019-03-12T08:37:59.256Z,11.47
2019-03-12T08:40:52.362Z,8.23
2019-03-12T08:43:26.281Z,8.47
2019-03-12T08:46:18.326Z,10.93
2019-03-12T08:48:52.224Z,14.27
2019-03-12T08:51:42.127Z,14.77
2019-03-12T08:54:22.452Z,10.37
2019-03-12T08:57:07.110Z,11.63
2019-03-12T08:59:52.699Z,8.90
2019-03-12T09:02:31.155Z,9.30
2019-03-12T09:05:18.100Z,10.67
2019-03-12T09:08:07.958Z,6.33
2019-03-12T09:10:54.990Z,12.27
2019-03-12T09:13:45.054Z,10.70
2019-03-12T09:16:18.226Z,7.13
2019-03-12T09:18:57.399Z,8.73
2019-03-12T09:21:50.516Z,8.00
2019-03-12T09:24:55.550Z,13.30
2019-03-12T09:27:48.380Z,11.47
2019-03-12T09:30:33.927Z,10.70
2019-03-12T09:33:29.788Z,19.10
2019-03-12T09:36:12.495Z,19.47
2019-03-12T09:38:51.550Z,16.00
2019-03-12T09:41:37.274Z,12.53
2019-03-12T09:44:22.462Z,9.33
2019-03-12T09:47:11.948Z,6.67
2019-03-12T09:49:53.778Z,7.00
2019-03-12T09:52:29.382Z,6.77
2019-03-12T09:55:12.862Z,6.87
2019-03-12T09:57:49.282Z,9.57
2019-03-12T10:00:24.639Z,8.40
2019-03-12T10:03:11.667Z,11.97
2019-03-12T10:05:46.152Z,7.33
2019-03-12T10:08:33.192Z,12.97
2019-03-12T10:11:26.390Z,7.00
2019-03-12T10:14:13.405Z,16.27
2019-03-12T10:16:55.312Z,5.03
2019-03-12T10:19:33.766Z,15.13
2019-03-12T10:22:19.410Z,8.17
2019-03-12T10:25:05.568Z,8.40
2019-03-12T10:27:55.550Z,10.07
2019-03-12T10:30:30.814Z,7.10
2019-03-12T10:33:20.810Z,10.77
2019-03-12T10:36:02.428Z,5.60
2019-03-12T10:39:11.422Z,7.60
2019-03-12T10:41:53.082Z,8.63
2019-03-12T10:44:25.725Z,7.50
2019-03-12T10:47:01.336Z,11.63
2019-03-12T10:49:37.332Z,8.03
2019-03-12T10:51:58.230Z,9.97
2019-03-12T10:54:25.720Z,6.83
2019-03-12T10:56:53.259Z,5.67
2019-03-12T10:59:20.864Z,7.00
2019-03-12T11:01:48.352Z,6.17
2019-03-12T11:04:15.874Z,5.63
2019-03-12T11:06:43.382Z,4.07
2019-03-12T11:09:10.978Z,4.33
2019-03-12T11:11:38.468Z,11.93
2019-03-12T11:14:06.056Z,8.00
2019-03-12T11:16:33.617Z,5.80
2019-03-12T11:19:01.135Z,4.27
2019-03-12T11:21:28.650Z,7.07
2019-03-12T11:23:56.136Z,8.53
2019-03-12T11:26:23.703Z,3.93
2019-03-12T11:28:51.340Z,5.33
2019-03-12T11:31:18.834Z,9.27
2019-03-12T11:33:46.359Z,6.00
2019-03-12T11:36:13.854Z,4.60
2019-03-12T11:38:41.365Z,8.40
2019-03-12T11:41:08.986Z,8.63
2019-03-12T11:43:36.466Z,3.30
2019-03-12T11:46:04.466Z,7.03
2019-03-12T11:48:31.962Z,6.53
2019-03-12T11:50:59.524Z,5.77
2019-03-12T11:53:26.973Z,7.80
2019-03-12T11:55:54.469Z,12.10
2019-03-12T11:58:21.998Z,18.93
2019-03-12T12:00:55.046Z,4.83
2019-03-12T12:03:22.527Z,11.07
2019-03-12T12:05:50.061Z,8.63
2019-03-12T12:08:17.555Z,7.57
2019-03-12T12:10:45.133Z,8.07
2019-03-12T12:13:12.661Z,9.03
2019-03-12T12:15:40.164Z,6.33
2019-03-12T12:18:07.655Z,8.53
2019-03-12T12:20:35.198Z,11.27
2019-03-12T12:23:02.724Z,9.47
2019-03-12T12:25:30.239Z,4.93
2019-03-12T12:27:57.783Z,10.90
2019-03-12T12:30:25.253Z,10.87
2019-03-12T12:32:52.940Z,12.07
2019-03-12T12:35:20.486Z,7.40
2019-03-12T12:37:47.986Z,9.97
2019-03-12T12:40:15.722Z,10.00
2019-03-12T12:42:43.435Z,6.83
2019-03-12T12:45:13.720Z,9.70
2019-03-12T12:47:41.250Z,4.80
2019-03-12T12:50:09.351Z,17.37
2019-03-12T12:52:37.060Z,6.23
2019-03-12T12:55:04.634Z,6.43
2019-03-12T12:57:32.151Z,9.10
2019-03-12T12:59:59.863Z,13.83
2019-03-12T13:02:27.394Z,11.63
2019-03-12T13:04:54.898Z,3.43
2019-03-12T13:07:22.529Z,8.13
2019-03-12T13:09:50.072Z,11.87
2019-03-12T13:12:17.611Z,7.27
2019-03-12T13:14:45.192Z,8.90
2019-03-12T13:17:12.755Z,14.20
2019-03-12T13:19:40.367Z,7.70
2019-03-12T13:22:10.323Z,8.47
2019-03-12T13:24:37.859Z,7.13
2019-03-12T13:27:05.398Z,3.83
2019-03-12T13:29:32.995Z,4.07
2019-03-12T13:32:12.855Z,7.00
2019-03-12T13:34:30.695Z,16.07
2019-03-12T13:36:58.247Z,8.57
2019-03-12T13:39:25.901Z,4.93
2019-03-12T13:41:53.618Z,5.30
2019-03-12T13:44:21.346Z,5.87
2019-03-12T13:46:48.874Z,11.57
2019-03-12T13:49:16.395Z,7.20
2019-03-12T13:51:43.941Z,5.10
2019-03-12T13:54:11.498Z,5.80
2019-03-12T13:56:39.064Z,10.57
2019-03-12T13:59:06.612Z,5.40
2019-03-12T14:01:34.116Z,12.90
2019-03-12T14:04:10.451Z,5.40
2019-03-12T14:06:30.973Z,8.97
2019-03-12T14:08:58.592Z,10.27
2019-03-12T14:11:26.013Z,8.70
2019-03-12T14:13:53.507Z,5.60
2019-03-12T14:16:21.266Z,7.30
2019-03-12T14:18:48.785Z,7.77
2019-03-12T14:21:16.429Z,5.23
2019-03-12T14:23:50.549Z,8.47
2019-03-12T14:26:18.083Z,15.03
2019-03-12T14:28:45.632Z,8.23
2019-03-12T14:31:13.131Z,15.23
2019-03-12T14:33:40.815Z,12.90
2019-03-12T14:36:08.469Z,10.67
2019-03-12T14:38:35.945Z,15.47
2019-03-12T14:41:03.709Z,7.93
2019-03-12T14:43:31.273Z,8.83
2019-03-12T14:45:58.801Z,21.63
2019-03-12T14:48:43.803Z,9.00
2019-03-12T14:51:29.744Z,17.67
2019-03-12T14:53:57.481Z,12.57
2019-03-12T14:56:27.383Z,8.73
2019-03-12T14:58:55.103Z,17.97
2019-03-12T15:01:22.679Z,14.57
2019-03-12T15:03:50.218Z,17.83
2019-03-12T15:06:17.733Z,14.70
2019-03-12T15:08:45.335Z,9.93
2019-03-12T15:11:12.880Z,8.13
2019-03-12T15:13:40.432Z,8.33
2019-03-12T15:16:08.039Z,16.23
2019-03-12T15:18:35.594Z,8.73
2019-03-12T15:21:03.124Z,9.13
2019-03-12T15:23:30.688Z,8.23
2019-03-12T15:25:58.212Z,7.40
2019-03-12T15:28:25.753Z,7.27
2019-03-12T15:30:53.331Z,12.97
2019-03-12T15:33:20.860Z,9.63
2019-03-12T15:35:48.439Z,11.13
2019-03-12T15:38:15.961Z,13.67
2019-03-12T15:40:43.517Z,13.37
2019-03-12T15:43:11.063Z,18.33
2019-03-12T15:45:38.637Z,11.63
2019-03-12T15:48:07.102Z,19.83
2019-03-12T15:50:34.908Z,16.30
2019-03-12T15:53:02.578Z,18.63
2019-03-12T15:55:30.736Z,21.00
2019-03-12T15:57:58.304Z,19.53
2019-03-12T16:00:25.856Z,24.73
2019-03-12T16:02:53.453Z,18.73
2019-03-12T16:05:20.987Z,19.37
2019-03-12T16:07:48.937Z,16.40
2019-03-12T16:10:19.249Z,19.93
2019-03-12T16:12:45.763Z,18.23
2019-03-12T16:15:13.813Z,20.30
2019-03-12T16:17:43.919Z,17.53
2019-03-12T16:20:11.559Z,19.97
2019-03-12T16:22:39.069Z,71.00
2019-03-12T16:25:06.907Z,45.90
2019-03-12T16:27:34.719Z,29.90
2019-03-12T16:30:02.437Z,57.13
2019-03-12T16:32:29.944Z,32.77
2019-03-12T16:34:57.480Z,24.37
2019-03-12T16:37:28.965Z,26.33
2019-03-12T16:39:56.758Z,20.10
2019-03-12T16:42:34.655Z,23.10
2019-03-12T16:44:53.786Z,21.47
2019-03-12T16:47:21.373Z,19.73
2019-03-12T16:49:48.915Z,23.37
2019-03-12T16:52:16.581Z,22.00
2019-03-12T16:54:44.118Z,22.40
2019-03-12T16:57:12.259Z,23.40
2019-03-12T16:59:39.947Z,20.57
2019-03-12T17:02:07.583Z,23.87
2019-03-12T17:04:35.255Z,22.73
2019-03-12T17:07:02.835Z,24.83
2019-03-12T17:09:30.508Z,29.63
2019-03-12T17:11:58.185Z,29.17
2019-03-12T17:14:38.050Z,23.40
2019-03-12T17:16:55.353Z,22.20
2019-03-12T17:19:22.951Z,19.10
2019-03-12T17:21:50.558Z,21.73
2019-03-12T17:24:18.178Z,28.10
2019-03-12T17:26:45.753Z,19.70
2019-03-12T17:29:13.443Z,20.70
2019-03-12T17:31:41.022Z,20.90
2019-03-12T17:34:08.587Z,22.20
2019-03-12T17:36:36.158Z,23.50
2019-03-12T17:39:06.186Z,20.33
2019-03-12T17:41:33.778Z,19.00
2019-03-12T17:44:01.355Z,16.30
2019-03-12T17:46:28.890Z,21.70
2019-03-12T17:48:56.883Z,25.77
2019-03-12T17:51:24.511Z,22.33
2019-03-12T17:53:58.527Z,21.70
2019-03-12T17:56:26.143Z,23.43
2019-03-12T17:58:53.701Z,27.03
2019-03-12T18:01:29.322Z,20.73
2019-03-12T18:03:50.702Z,27.90
2019-03-12T18:06:18.211Z,28.83
2019-03-12T18:08:45.787Z,34.60
2019-03-12T18:11:13.356Z,34.57
2019-03-12T18:13:40.980Z,30.00
2019-03-12T18:16:08.564Z,35.23
2019-03-12T18:18:36.109Z,33.30
2019-03-12T18:21:03.679Z,35.60
2019-03-12T18:23:31.183Z,40.23
2019-03-12T18:25:59.453Z,41.27
2019-03-12T18:28:26.973Z,45.57
2019-03-12T18:30:54.521Z,51.50
2019-03-12T18:33:22.090Z,51.93
2019-03-12T18:35:49.607Z,45.00
2019-03-12T18:38:17.126Z,42.77
2019-03-12T18:40:44.679Z,49.33
2019-03-12T18:43:14.666Z,49.00
2019-03-12T18:45:41.625Z,50.27
2019-03-12T18:48:10.280Z,48.13
2019-03-12T18:50:48.712Z,49.03
2019-03-12T18:53:17.415Z,49.60
2019-03-12T18:56:02.057Z,44.93
2019-03-12T18:58:31.101Z,45.50
2019-03-12T19:01:01.345Z,36.70
2019-03-12T19:03:28.879Z,39.57
2019-03-12T19:05:56.422Z,39.60
2019-03-12T19:08:23.947Z,37.47
2019-03-12T19:10:51.526Z,33.73
2019-03-12T19:13:19.037Z,36.13
2019-03-12T19:15:46.537Z,39.63
2019-03-12T19:18:14.098Z,50.80
2019-03-12T19:20:41.663Z,45.57
2019-03-12T19:23:09.235Z,42.80
2019-03-12T19:25:38.280Z,39.60
2019-03-12T19:28:06.308Z,43.07
2019-03-12T19:30:33.973Z,47.90
2019-03-12T19:33:03.853Z,84.83
2019-03-12T19:35:31.506Z,97.27
2019-03-12T19:37:59.013Z,67.07
2019-03-12T19:40:26.716Z,88.87
2019-03-12T19:42:54.329Z,91.60
2019-03-12T19:45:21.960Z,76.50
2019-03-12T19:47:49.506Z,72.27
2019-03-12T19:50:17.583Z,94.17
2019-03-12T19:52:45.140Z,123.07
2019-03-12T19:55:14.666Z,99.47
2019-03-12T19:57:42.423Z,54.87
2019-03-12T20:00:12.429Z,57.97
2019-03-12T20:02:40.823Z,104.77
2019-03-12T20:05:09.147Z,173.83
2019-03-12T20:07:36.834Z,171.37
2019-03-12T20:10:38.982Z,141.43
2019-03-12T20:13:43.118Z,136.63
2019-03-12T20:16:49.666Z,82.27
2019-03-12T20:20:03.962Z,105.93
2019-03-12T20:23:17.728Z,108.30
2019-03-12T20:26:26.115Z,120.87
2019-03-12T20:29:30.693Z,140.23
2019-03-12T20:32:48.341Z,138.77
2019-03-12T20:36:00.764Z,130.03
2019-03-12T20:39:11.599Z,103.80
2019-03-12T20:42:16.789Z,120.37
2019-03-12T20:45:21.031Z,127.73
2019-03-12T20:48:18.182Z,135.57
2019-03-12T20:51:49.408Z,157.20
2019-03-12T20:54:59.710Z,183.50
2019-03-12T20:58:02.247Z,192.67
2019-03-12T21:01:23.624Z,204.67
2019-03-12T21:04:34.810Z,182.43
2019-03-12T21:07:46.330Z,163.17
2019-03-12T21:10:54.516Z,145.70
2019-03-12T21:14:14.641Z,121.27
2019-03-12T21:17:20.507Z,125.23
2019-03-12T21:20:50.967Z,137.37
2019-03-12T21:23:44.582Z,115.10
2019-03-12T21:26:41.772Z,119.20
2019-03-12T21:29:44.344Z,122.07
2019-03-12T21:32:12.426Z,111.30
2019-03-12T21:34:39.976Z,120.50
2019-03-12T21:37:07.627Z,120.83
2019-03-12T21:39:35.294Z,122.77
2019-03-12T21:42:02.820Z,120.30
2019-03-12T21:44:30.513Z,123.93
2019-03-12T21:46:58.513Z,126.70
2019-03-12T21:49:26.124Z,120.87
2019-03-12T21:51:53.670Z,127.87
2019-03-12T21:54:21.220Z,122.57
2019-03-12T21:56:48.740Z,115.37
2019-03-12T21:59:16.292Z,116.30
2019-03-12T22:01:43.830Z,116.63
2019-03-12T22:04:11.348Z,117.20
2019-03-12T22:06:38.930Z,108.73
2019-03-12T22:09:06.447Z,106.27
2019-03-12T22:11:33.946Z,107.17
2019-03-12T22:14:01.556Z,101.67
2019-03-12T22:16:29.114Z,106.47
2019-03-12T22:18:56.606Z,126.23
2019-03-12T22:21:31.734Z,129.73
2019-03-12T22:24:03.438Z,125.30
2019-03-12T22:26:30.997Z,122.07
2019-03-12T22:28:58.846Z,126.77
2019-03-12T22:31:26.358Z,143.10
2019-03-12T22:33:53.864Z,138.13
2019-03-12T22:36:21.372Z,136.87
2019-03-12T22:38:48.892Z,149.27
2019-03-12T22:41:16.443Z,140.73
2019-03-12T22:43:43.961Z,133.93
2019-03-12T22:46:11.478Z,139.33
2019-03-12T22:48:38.992Z,140.83
2019-03-12T22:51:06.504Z,124.23
2019-03-12T22:53:34.042Z,122.40
2019-03-12T22:56:01.569Z,117.30
2019-03-12T22:58:29.062Z,123.63
2019-03-12T23:00:56.754Z,116.93
2019-03-12T23:03:24.270Z,113.40
2019-03-12T23:05:51.804Z,135.87
2019-03-12T23:08:19.395Z,119.70
2019-03-12T23:10:47.142Z,127.00
2019-03-12T23:13:14.712Z,117.77
2019-03-12T23:15:42.283Z,121.50
2019-03-12T23:18:09.836Z,127.03
2019-03-12T23:20:37.435Z,118.73
2019-03-12T23:23:05.004Z,114.87
2019-03-12T23:25:32.545Z,109.10
2019-03-12T23:28:00.080Z,104.53
2019-03-12T23:30:28.890Z,109.27
2019-03-12T23:32:56.755Z,106.70
2019-03-12T23:35:24.290Z,101.10
2019-03-12T23:37:51.837Z,98.87
2019-03-12T23:40:19.411Z,93.67
2019-03-12T23:42:47.008Z,95.67
2019-03-12T23:45:15.179Z,96.13
2019-03-12T23:47:42.817Z,103.33
2019-03-12T23:50:11.151Z,95.57
2019-03-12T23:52:38.843Z,101.40
2019-03-12T23:55:06.528Z,92.03
2019-03-12T23:57:34.041Z,100.70
